Usepa Lake Guardian — WA09082 — position and weather

sailwx.info

Track history (hours):
 
Tides and Currents Weather Stations Pressure Air Temp Water Temp Dewpoint Dewpoint Depression Visibility Wind Speed Wind Dir Waves Ship Positions

Usepa Lake Guardian

Last reported at 2017-Oct-05 16:38 UTC. Time now 2017-Nov-18 17:51 UTC.
Position N 45°51' W 085°52'.
Warning: this ship's position is 44 days out of date.

Length 53 m; draft 3.8 m.

Type: Dredging. MMSI: 338021074.

Date/timePositionNaut miles runAvg speedWind from/ knotsBaromVisibWave heightAir tempDewpointWater temp
2017-Oct-05 16:38N 45°51' W 085°52'1412.1
2017-Oct-05 15:31N 45°53' W 085°33'612.2
2017-Oct-05 15:00N 45°53' W 085°24'612.2
2017-Oct-05 14:30N 45°52' W 085°15'612.3
2017-Oct-05 14:01N 45°51' W 085°06'612.2
2017-Oct-05 13:31N 45°50' W 084°58'612.3
2017-Oct-05 13:00N 45°49' W 084°49'612.1
2017-Oct-05 12:30N 45°48' W 084°41'612.3
2017-Oct-05 12:00N 45°44' W 084°33'612.2
2017-Oct-05 11:31N 45°42' W 084°25'612.2
2017-Oct-05 11:00N 45°41' W 084°17'612.1
2017-Oct-05 10:30N 45°38' W 084°09'612.1
2017-Oct-05 10:00N 45°36' W 084°01'612.2
2017-Oct-05 09:30N 45°33' W 083°53'612.3
2017-Oct-05 09:00N 45°31' W 083°45'612.2
2017-Oct-05 08:30N 45°28' W 083°37'612.4
2017-Oct-05 08:00N 45°26' W 083°29'  
Track history (hours):
 
Tides and Currents Weather Stations Pressure Air Temp Water Temp Dewpoint Dewpoint Depression Visibility Wind Speed Wind Dir Waves Ship Positions

Usepa Lake Guardian

Last reported at 2017-Oct-05 16:38 UTC. Time now 2017-Nov-18 17:51 UTC.
Position N 45°51' W 085°52'.
Warning: this ship's position is 44 days out of date.

Length 53 m; draft 3.8 m.

Type: Dredging. MMSI: 338021074.

Date/timePositionNaut miles runAvg speedWind from/ knotsBaromVisibWave heightAir tempDewpointWater temp
2017-Oct-05 16:38N 45°51' W 085°52'1412.1
2017-Oct-05 15:31N 45°53' W 085°33'612.2
2017-Oct-05 15:00N 45°53' W 085°24'612.2
2017-Oct-05 14:30N 45°52' W 085°15'612.3
2017-Oct-05 14:01N 45°51' W 085°06'612.2
2017-Oct-05 13:31N 45°50' W 084°58'612.3
2017-Oct-05 13:00N 45°49' W 084°49'612.1
2017-Oct-05 12:30N 45°48' W 084°41'612.3
2017-Oct-05 12:00N 45°44' W 084°33'612.2
2017-Oct-05 11:31N 45°42' W 084°25'612.2
2017-Oct-05 11:00N 45°41' W 084°17'612.1
2017-Oct-05 10:30N 45°38' W 084°09'612.1
2017-Oct-05 10:00N 45°36' W 084°01'612.2
2017-Oct-05 09:30N 45°33' W 083°53'612.3
2017-Oct-05 09:00N 45°31' W 083°45'612.2
2017-Oct-05 08:30N 45°28' W 083°37'612.4
2017-Oct-05 08:00N 45°26' W 083°29'  

Dump ship's entire track history